Pride Of Rotterdam — PBAJ — position and weather

sailwx.info

Track history (hours):
 
Tides and Currents Weather Stations Pressure Air Temp Water Temp Dewpoint Dewpoint Depression Visibility Wind Speed Wind Dir Waves Ship Positions

Pride Of Rotterdam

Operator: P&O Ferries

Last reported at 2020-Jul-14 13:28 UTC. Time now 2020-Jul-14 13:41 UTC.
Position N 51°57' E 004°08'.

Length 214 m; draft 5.8 m.

Type: Ship. MMSI: 244980000.

Date/timePositionNaut miles runAvg speedWind from/ knotsBaromVisibWave heightAir tempDewpointWater temp
2020-Jul-14 13:28N 51°57' E 004°08'0 0.0
2020-Jul-14 06:58N 51°57' E 004°08'0 0.0
2020-Jul-14 06:30N 51°57' E 004°08'2113.6
2020-Jul-14 04:59N 52°05' E 003°37'2819.0
2020-Jul-14 03:30N 52°19' E 002°58'1919.0
2020-Jul-14 02:30N 52°31' E 002°33'1919.4
2020-Jul-14 01:30N 52°43' E 002°07'2019.7
2020-Jul-14 00:30N 52°53' E 001°39'8713.3
2020-Jul-13 18:00N 53°44' W 000°17'0 0.0
2020-Jul-13 16:59N 53°44' W 000°17'0 0.0
2020-Jul-13 13:28N 53°44' W 000°17'0 0.0
2020-Jul-13 12:58N 53°44' W 000°17'0 0.0
2020-Jul-13 07:59N 53°44' W 000°17'36 7.3
2020-Jul-13 03:00N 53°28' E 000°38'7616.9
2020-Jul-12 22:30N 52°42' E 002°19'918.5
2020-Jul-12 22:00N 52°36' E 002°31'5518.3
2020-Jul-12 19:00N 52°05' E 003°45'917.4
2020-Jul-12 18:30N 52°01' E 003°58'8 1.9
2020-Jul-12 14:28N 51°57' E 004°08'0 0.0
2020-Jul-12 13:30N 51°57' E 004°08'0 0.0
2020-Jul-12 12:30N 51°57' E 004°08'0 0.0
2020-Jul-12 10:59N 51°57' E 004°08'0 0.0
2020-Jul-12 07:31N 51°57' E 004°08'25 9.9
2020-Jul-12 05:00N 52°07' E 003°31'5816.6
2020-Jul-12 01:31N 52°39' E 002°12'2717.9
2020-Jul-12 00:00N 52°54' E 001°35'2617.6
2020-Jul-11 22:30N 53°07' E 000°57'3017.4
2020-Jul-11 20:47N 53°29' E 000°22'2614.3
2020-Jul-11 19:00N 53°42' W 000°14'2 0.7
2020-Jul-11 15:29N 53°44' W 000°17'0 0.0
2020-Jul-11 13:28N 53°44' W 000°17'0 0.0
2020-Jul-11 11:00N 53°44' W 000°17'0 0.0
2020-Jul-11 08:59N 53°44' W 000°17'0 0.0
2020-Jul-11 07:59N 53°44' W 000°17'44 9.9
2020-Jul-11 03:30N 53°24' E 000°49'816.3
2020-Jul-11 03:01N 53°19' E 001°01'817.0
2020-Jul-11 02:31N 53°14' E 001°12'816.5
2020-Jul-11 02:01N 53°10' E 001°23'1616.2
2020-Jul-11 01:01N 53°00' E 001°45'3915.6
2020-Jul-10 22:30N 52°36' E 002°36'5217.2
2020-Jul-10 19:30N 52°06' E 003°44'817.0
2020-Jul-10 19:01N 52°02' E 003°57'9 2.9
2020-Jul-10 15:56N 51°57' E 004°08'0 0.0
2020-Jul-10 14:59N 51°57' E 004°08'0 0.0
2020-Jul-10 13:28N 51°57' E 004°08'0 0.0
2020-Jul-10 11:58N 51°57' E 004°08'0 0.0
2020-Jul-10 11:00N 51°57' E 004°08'0 0.0
2020-Jul-10 08:29N 51°57' E 004°08'0 0.0
2020-Jul-10 06:30N 51°57' E 004°08'2 3.6
2020-Jul-10 06:01N 51°58' E 004°07'917.6
2020-Jul-10 05:30N 52°01' E 003°53'5417.9
2020-Jul-10 02:30N 52°29' E 002°38'918.1
2020-Jul-10 02:01N 52°34' E 002°26'918.2
2020-Jul-10 01:31N 52°39' E 002°14'918.2
2020-Jul-10 01:01N 52°44' E 002°01'918.4
2020-Jul-10 00:31N 52°49' E 001°48'5318.8
2020-Jul-09 21:42N 53°20' E 000°36'2917.4
2020-Jul-09 20:00N 53°36' W 000°05'11 2.7
2020-Jul-09 15:58N 53°44' W 000°17'0 0.0
2020-Jul-09 14:58N 53°44' W 000°17'0 0.0
2020-Jul-09 14:00N 53°44' W 000°17'0 0.0
2020-Jul-09 12:30N 53°44' W 000°17'0 0.0
2020-Jul-09 11:59N 53°44' W 000°17'0 0.0
2020-Jul-09 11:29N 53°44' W 000°17'0 0.0
2020-Jul-09 10:29N 53°44' W 000°17'0 0.0
2020-Jul-09 08:58N 53°44' W 000°17'0 0.0
2020-Jul-09 08:28N 53°44' W 000°17'0 0.0
2020-Jul-09 07:00N 53°44' W 000°17'0 0.0
2020-Jul-09 06:00N 53°44' W 000°17'4314.3
2020-Jul-09 03:00N 53°24' E 000°47'11818.0
2020-Jul-08 20:30N 52°13' E 003°21'3310.9
2020-Jul-08 17:29N 51°57' E 004°08'0 0.0
2020-Jul-08 16:59N 51°57' E 004°08'0 0.0
2020-Jul-08 15:29N 51°57' E 004°08'0 0.0
2020-Jul-08 13:58N 51°57' E 004°08'0 0.0
2020-Jul-08 13:28N 51°57' E 004°08'0 0.0
2020-Jul-08 13:00N 51°57' E 004°08'0 0.0
2020-Jul-08 12:30N 51°57' E 004°08'0 0.0
2020-Jul-08 11:00N 51°57' E 004°08'10 1.8
2020-Jul-08 05:31N 52°01' E 003°53'4718.5
2020-Jul-08 03:00N 52°25' E 002°49'7619.0
2020-Jul-07 23:01N 53°12' E 001°10'2518.5
2020-Jul-07 21:40N 53°26' E 000°36'2118.4
2020-Jul-07 20:30N 53°35' E 000°03'15 7.4
2020-Jul-07 18:28N 53°44' W 000°17'0 0.0
2020-Jul-07 16:00N 53°44' W 000°17'0 0.0
2020-Jul-07 14:59N 53°44' W 000°17'0 0.0
2020-Jul-07 13:59N 53°44' W 000°17'0 0.0
2020-Jul-07 12:58N 53°44' W 000°17'0 0.0
2020-Jul-07 11:28N 53°44' W 000°17'0 0.0
2020-Jul-07 11:01N 53°44' W 000°17'0 0.0
2020-Jul-07 07:29N 53°44' W 000°17'2 0.8
2020-Jul-07 05:30N 53°43' W 000°15'917.8
2020-Jul-07 05:00N 53°37' W 000°04'3117.3
2020-Jul-07 03:12N 53°24' E 000°43'316.6
2020-Jul-07 03:00N 53°23' E 000°49'5418.0
2020-Jul-07 00:00N 52°47' E 001°56'2717.8
2020-Jul-06 22:29N 52°32' E 002°34'6218.0
2020-Jul-06 19:00N 52°00' E 004°02'510.3
2020-Jul-06 18:30N 51°57' E 004°08'0 0.2
2020-Jul-06 17:29N 51°57' E 004°08'0 0.0
2020-Jul-06 16:59N 51°57' E 004°08'0 0.0
2020-Jul-06 12:00N 51°57' E 004°08'0 0.0
2020-Jul-06 11:00N 51°57' E 004°08'0 0.0
2020-Jul-06 09:59N 51°57' E 004°08'0 0.0
2020-Jul-06 09:29N 51°57' E 004°08'0 0.0
2020-Jul-06 08:28N 51°57' E 004°08'0 0.0
2020-Jul-06 07:58N 51°57' E 004°08'27 7.9
2020-Jul-06 04:30N 52°08' E 003°27'2917.8
2020-Jul-06 02:52N 52°25' E 002°49'617.7
2020-Jul-06 02:31N 52°29' E 002°40'1817.7
2020-Jul-06 01:31N 52°39' E 002°16'6117.4
2020-Jul-05 22:01N 53°19' E 001°01'3618.0
2020-Jul-05 20:01N 53°34' E 000°05'17 4.1
2020-Jul-05 15:59N 53°44' W 000°17'0 0.0
2020-Jul-05 15:29N 53°44' W 000°17'0 0.0
2020-Jul-05 12:28N 53°44' W 000°17'0 0.0
2020-Jul-05 10:30N 53°44' W 000°17'15 3.0
2020-Jul-05 05:30N 53°35' E 000°03'2714.2
2020-Jul-05 03:37N 53°25' E 000°45'914.9
2020-Jul-05 03:01N 53°21' E 000°58'1616.2
2020-Jul-05 02:00N 53°09' E 001°17'5816.6
2020-Jul-04 22:30N 52°33' E 002°32'4015.9
2020-Jul-04 20:00N 52°11' E 003°26'815.3
2020-Jul-04 19:30N 52°07' E 003°37'1211.9
2020-Jul-04 18:31N 52°03' E 003°56'  
Track history (hours):
 
Tides and Currents Weather Stations Pressure Air Temp Water Temp Dewpoint Dewpoint Depression Visibility Wind Speed Wind Dir Waves Ship Positions

Pride Of Rotterdam

Operator: P&O Ferries

Last reported at 2020-Jul-14 13:28 UTC. Time now 2020-Jul-14 13:41 UTC.
Position N 51°57' E 004°08'.

Length 214 m; draft 5.8 m.

Type: Ship. MMSI: 244980000.

Date/timePositionNaut miles runAvg speedWind from/ knotsBaromVisibWave heightAir tempDewpointWater temp
2020-Jul-14 13:28N 51°57' E 004°08'0 0.0
2020-Jul-14 06:58N 51°57' E 004°08'0 0.0
2020-Jul-14 06:30N 51°57' E 004°08'2113.6
2020-Jul-14 04:59N 52°05' E 003°37'2819.0
2020-Jul-14 03:30N 52°19' E 002°58'1919.0
2020-Jul-14 02:30N 52°31' E 002°33'1919.4
2020-Jul-14 01:30N 52°43' E 002°07'2019.7
2020-Jul-14 00:30N 52°53' E 001°39'8713.3
2020-Jul-13 18:00N 53°44' W 000°17'0 0.0
2020-Jul-13 16:59N 53°44' W 000°17'0 0.0
2020-Jul-13 13:28N 53°44' W 000°17'0 0.0
2020-Jul-13 12:58N 53°44' W 000°17'0 0.0
2020-Jul-13 07:59N 53°44' W 000°17'36 7.3
2020-Jul-13 03:00N 53°28' E 000°38'7616.9
2020-Jul-12 22:30N 52°42' E 002°19'918.5
2020-Jul-12 22:00N 52°36' E 002°31'5518.3
2020-Jul-12 19:00N 52°05' E 003°45'917.4
2020-Jul-12 18:30N 52°01' E 003°58'8 1.9
2020-Jul-12 14:28N 51°57' E 004°08'0 0.0
2020-Jul-12 13:30N 51°57' E 004°08'0 0.0
2020-Jul-12 12:30N 51°57' E 004°08'0 0.0
2020-Jul-12 10:59N 51°57' E 004°08'0 0.0
2020-Jul-12 07:31N 51°57' E 004°08'25 9.9
2020-Jul-12 05:00N 52°07' E 003°31'5816.6
2020-Jul-12 01:31N 52°39' E 002°12'2717.9
2020-Jul-12 00:00N 52°54' E 001°35'2617.6
2020-Jul-11 22:30N 53°07' E 000°57'3017.4
2020-Jul-11 20:47N 53°29' E 000°22'2614.3
2020-Jul-11 19:00N 53°42' W 000°14'2 0.7
2020-Jul-11 15:29N 53°44' W 000°17'0 0.0
2020-Jul-11 13:28N 53°44' W 000°17'0 0.0
2020-Jul-11 11:00N 53°44' W 000°17'0 0.0
2020-Jul-11 08:59N 53°44' W 000°17'0 0.0
2020-Jul-11 07:59N 53°44' W 000°17'44 9.9
2020-Jul-11 03:30N 53°24' E 000°49'816.3
2020-Jul-11 03:01N 53°19' E 001°01'817.0
2020-Jul-11 02:31N 53°14' E 001°12'816.5
2020-Jul-11 02:01N 53°10' E 001°23'1616.2
2020-Jul-11 01:01N 53°00' E 001°45'3915.6
2020-Jul-10 22:30N 52°36' E 002°36'5217.2
2020-Jul-10 19:30N 52°06' E 003°44'817.0
2020-Jul-10 19:01N 52°02' E 003°57'9 2.9
2020-Jul-10 15:56N 51°57' E 004°08'0 0.0
2020-Jul-10 14:59N 51°57' E 004°08'0 0.0
2020-Jul-10 13:28N 51°57' E 004°08'0 0.0
2020-Jul-10 11:58N 51°57' E 004°08'0 0.0
2020-Jul-10 11:00N 51°57' E 004°08'0 0.0
2020-Jul-10 08:29N 51°57' E 004°08'0 0.0
2020-Jul-10 06:30N 51°57' E 004°08'2 3.6
2020-Jul-10 06:01N 51°58' E 004°07'917.6
2020-Jul-10 05:30N 52°01' E 003°53'5417.9
2020-Jul-10 02:30N 52°29' E 002°38'918.1
2020-Jul-10 02:01N 52°34' E 002°26'918.2
2020-Jul-10 01:31N 52°39' E 002°14'918.2
2020-Jul-10 01:01N 52°44' E 002°01'918.4
2020-Jul-10 00:31N 52°49' E 001°48'5318.8
2020-Jul-09 21:42N 53°20' E 000°36'2917.4
2020-Jul-09 20:00N 53°36' W 000°05'11 2.7
2020-Jul-09 15:58N 53°44' W 000°17'0 0.0
2020-Jul-09 14:58N 53°44' W 000°17'0 0.0
2020-Jul-09 14:00N 53°44' W 000°17'0 0.0
2020-Jul-09 12:30N 53°44' W 000°17'0 0.0
2020-Jul-09 11:59N 53°44' W 000°17'0 0.0
2020-Jul-09 11:29N 53°44' W 000°17'0 0.0
2020-Jul-09 10:29N 53°44' W 000°17'0 0.0
2020-Jul-09 08:58N 53°44' W 000°17'0 0.0
2020-Jul-09 08:28N 53°44' W 000°17'0 0.0
2020-Jul-09 07:00N 53°44' W 000°17'0 0.0
2020-Jul-09 06:00N 53°44' W 000°17'4314.3
2020-Jul-09 03:00N 53°24' E 000°47'11818.0
2020-Jul-08 20:30N 52°13' E 003°21'3310.9
2020-Jul-08 17:29N 51°57' E 004°08'0 0.0
2020-Jul-08 16:59N 51°57' E 004°08'0 0.0
2020-Jul-08 15:29N 51°57' E 004°08'0 0.0
2020-Jul-08 13:58N 51°57' E 004°08'0 0.0
2020-Jul-08 13:28N 51°57' E 004°08'0 0.0
2020-Jul-08 13:00N 51°57' E 004°08'0 0.0
2020-Jul-08 12:30N 51°57' E 004°08'0 0.0
2020-Jul-08 11:00N 51°57' E 004°08'10 1.8
2020-Jul-08 05:31N 52°01' E 003°53'4718.5
2020-Jul-08 03:00N 52°25' E 002°49'7619.0
2020-Jul-07 23:01N 53°12' E 001°10'2518.5
2020-Jul-07 21:40N 53°26' E 000°36'2118.4
2020-Jul-07 20:30N 53°35' E 000°03'15 7.4
2020-Jul-07 18:28N 53°44' W 000°17'0 0.0
2020-Jul-07 16:00N 53°44' W 000°17'0 0.0
2020-Jul-07 14:59N 53°44' W 000°17'0 0.0
2020-Jul-07 13:59N 53°44' W 000°17'0 0.0
2020-Jul-07 12:58N 53°44' W 000°17'0 0.0
2020-Jul-07 11:28N 53°44' W 000°17'0 0.0
2020-Jul-07 11:01N 53°44' W 000°17'0 0.0
2020-Jul-07 07:29N 53°44' W 000°17'2 0.8
2020-Jul-07 05:30N 53°43' W 000°15'917.8
2020-Jul-07 05:00N 53°37' W 000°04'3117.3
2020-Jul-07 03:12N 53°24' E 000°43'316.6
2020-Jul-07 03:00N 53°23' E 000°49'5418.0
2020-Jul-07 00:00N 52°47' E 001°56'2717.8
2020-Jul-06 22:29N 52°32' E 002°34'6218.0
2020-Jul-06 19:00N 52°00' E 004°02'510.3
2020-Jul-06 18:30N 51°57' E 004°08'0 0.2
2020-Jul-06 17:29N 51°57' E 004°08'0 0.0
2020-Jul-06 16:59N 51°57' E 004°08'0 0.0
2020-Jul-06 12:00N 51°57' E 004°08'0 0.0
2020-Jul-06 11:00N 51°57' E 004°08'0 0.0
2020-Jul-06 09:59N 51°57' E 004°08'0 0.0
2020-Jul-06 09:29N 51°57' E 004°08'0 0.0
2020-Jul-06 08:28N 51°57' E 004°08'0 0.0
2020-Jul-06 07:58N 51°57' E 004°08'27 7.9
2020-Jul-06 04:30N 52°08' E 003°27'2917.8
2020-Jul-06 02:52N 52°25' E 002°49'617.7
2020-Jul-06 02:31N 52°29' E 002°40'1817.7
2020-Jul-06 01:31N 52°39' E 002°16'6117.4
2020-Jul-05 22:01N 53°19' E 001°01'3618.0
2020-Jul-05 20:01N 53°34' E 000°05'17 4.1
2020-Jul-05 15:59N 53°44' W 000°17'0 0.0
2020-Jul-05 15:29N 53°44' W 000°17'0 0.0
2020-Jul-05 12:28N 53°44' W 000°17'0 0.0
2020-Jul-05 10:30N 53°44' W 000°17'15 3.0
2020-Jul-05 05:30N 53°35' E 000°03'2714.2
2020-Jul-05 03:37N 53°25' E 000°45'914.9
2020-Jul-05 03:01N 53°21' E 000°58'1616.2
2020-Jul-05 02:00N 53°09' E 001°17'5816.6
2020-Jul-04 22:30N 52°33' E 002°32'4015.9
2020-Jul-04 20:00N 52°11' E 003°26'815.3
2020-Jul-04 19:30N 52°07' E 003°37'1211.9
2020-Jul-04 18:31N 52°03' E 003°56'  

Dump ship's entire track history